sensor_id;sensor_type;location;lat;lon;timestamp;pressure;altitude;pressure_sealevel;temperature;humidity
32875;BME280;40468;42.128;24.750;2023-08-01T00:00:38;99178.31;;;25.55;51.64
32875;BME280;40468;42.128;24.750;2023-08-01T00:02:10;99179.34;;;25.54;51.66
32875;BME280;40468;42.128;24.750;2023-08-01T00:03:41;99182.66;;;25.56;51.80
32875;BME280;40468;42.128;24.750;2023-08-01T00:05:12;99174.81;;;25.55;51.40
32875;BME280;40468;42.128;24.750;2023-08-01T00:06:43;99181.19;;;25.54;51.58
32875;BME280;40468;42.128;24.750;2023-08-01T00:08:15;99180.34;;;25.53;51.21
32875;BME280;40468;42.128;24.750;2023-08-01T00:09:46;99182.56;;;25.50;51.25
32875;BME280;40468;42.128;24.750;2023-08-01T00:11:18;99179.03;;;25.49;51.18
32875;BME280;40468;42.128;24.750;2023-08-01T00:12:49;99172.22;;;25.47;51.65
32875;BME280;40468;42.128;24.750;2023-08-01T00:14:20;99171.75;;;25.43;51.19
32875;BME280;40468;42.128;24.750;2023-08-01T00:15:55;99172.78;;;25.42;51.46
32875;BME280;40468;42.128;24.750;2023-08-01T00:17:27;99164.31;;;25.38;50.94
32875;BME280;40468;42.128;24.750;2023-08-01T00:18:58;99167.81;;;25.39;51.10
32875;BME280;40468;42.128;24.750;2023-08-01T00:20:30;99166.16;;;25.38;50.85
32875;BME280;40468;42.128;24.750;2023-08-01T00:22:01;99171.66;;;25.36;50.69
32875;BME280;40468;42.128;24.750;2023-08-01T00:23:32;99167.50;;;25.34;50.61
32875;BME280;40468;42.128;24.750;2023-08-01T00:25:04;99162.91;;;25.28;50.67
32875;BME280;40468;42.128;24.750;2023-08-01T00:26:36;99161.63;;;25.24;50.78
32875;BME280;40468;42.128;24.750;2023-08-01T00:28:07;99160.97;;;25.22;50.90
32875;BME280;40468;42.128;24.750;2023-08-01T00:29:39;99169.31;;;25.18;50.72
32875;BME280;40468;42.128;24.750;2023-08-01T00:31:11;99158.47;;;25.20;51.16
32875;BME280;40468;42.128;24.750;2023-08-01T00:32:43;99154.50;;;25.16;51.03
32875;BME280;40468;42.128;24.750;2023-08-01T00:34:13;99160.34;;;25.11;50.91
32875;BME280;40468;42.128;24.750;2023-08-01T00:35:53;99154.38;;;25.09;50.71
32875;BME280;40468;42.128;24.750;2023-08-01T00:37:24;99149.22;;;25.08;51.32
32875;BME280;40468;42.128;24.750;2023-08-01T00:38:56;99149.88;;;25.10;50.99
32875;BME280;40468;42.128;24.750;2023-08-01T00:40:30;99148.69;;;25.12;50.79
32875;BME280;40468;42.128;24.750;2023-08-01T00:42:01;99146.03;;;25.12;51.16
32875;BME280;40468;42.128;24.750;2023-08-01T00:43:32;99144.38;;;25.11;50.90
32875;BME280;40468;42.128;24.750;2023-08-01T00:45:05;99150.53;;;25.12;51.12
32875;BME280;40468;42.128;24.750;2023-08-01T00:46:37;99149.69;;;25.11;51.14
32875;BME280;40468;42.128;24.750;2023-08-01T00:48:09;99143.66;;;24.94;51.23
32875;BME280;40468;42.128;24.750;2023-08-01T00:49:40;99138.28;;;25.03;51.32
32875;BME280;40468;42.128;24.750;2023-08-01T00:51:13;99139.22;;;25.10;51.14
32875;BME280;40468;42.128;24.750;2023-08-01T00:52:44;99136.38;;;25.11;50.96
32875;BME280;40468;42.128;24.750;2023-08-01T00:54:16;99127.91;;;25.08;50.74
32875;BME280;40468;42.128;24.750;2023-08-01T00:55:47;99135.19;;;25.14;50.79
32875;BME280;40468;42.128;24.750;2023-08-01T00:57:19;99140.69;;;25.12;50.42
32875;BME280;40468;42.128;24.750;2023-08-01T00:58:50;99131.72;;;25.13;50.85
32875;BME280;40468;42.128;24.750;2023-08-01T01:00:22;99129.03;;;25.13;50.63
32875;BME280;40468;42.128;24.750;2023-08-01T01:01:55;99131.72;;;25.13;50.59
32875;BME280;40468;42.128;24.750;2023-08-01T01:03:26;99126.00;;;24.93;50.75
32875;BME280;40468;42.128;24.750;2023-08-01T01:04:57;99129.31;;;24.95;51.24
32875;BME280;40468;42.128;24.750;2023-08-01T01:06:32;99123.47;;;25.00;50.90
32875;BME280;40468;42.128;24.750;2023-08-01T01:08:04;99113.53;;;24.94;51.10
32875;BME280;40468;42.128;24.750;2023-08-01T01:09:36;99119.38;;;24.89;50.86
32875;BME280;40468;42.128;24.750;2023-08-01T01:11:08;99122.25;;;24.88;51.18
32875;BME280;40468;42.128;24.750;2023-08-01T01:12:39;99111.09;;;24.84;51.29
32875;BME280;40468;42.128;24.750;2023-08-01T01:14:11;99104.47;;;24.80;51.03
32875;BME280;40468;42.128;24.750;2023-08-01T01:15:43;99111.94;;;24.85;51.17
32875;BME280;40468;42.128;24.750;2023-08-01T01:17:15;99115.25;;;24.87;50.91
32875;BME280;40468;42.128;24.750;2023-08-01T01:18:47;99108.38;;;24.69;51.49
32875;BME280;40468;42.128;24.750;2023-08-01T01:20:22;99108.78;;;24.81;51.11
32875;BME280;40468;42.128;24.750;2023-08-01T01:21:56;99104.94;;;24.84;50.93
32875;BME280;40468;42.128;24.750;2023-08-01T01:23:28;99104.31;;;24.82;51.28
32875;BME280;40468;42.128;24.750;2023-08-01T01:25:01;99090.66;;;24.85;51.17
32875;BME280;40468;42.128;24.750;2023-08-01T01:26:34;99098.56;;;24.70;51.31
32875;BME280;40468;42.128;24.750;2023-08-01T01:28:06;99085.38;;;24.77;51.42
32875;BME280;40468;42.128;24.750;2023-08-01T01:29:39;99086.84;;;24.79;51.33
32875;BME280;40468;42.128;24.750;2023-08-01T01:31:11;99081.16;;;24.82;51.48
32875;BME280;40468;42.128;24.750;2023-08-01T01:32:42;99093.31;;;24.85;51.13
32875;BME280;40468;42.128;24.750;2023-08-01T01:34:13;99087.78;;;24.86;50.85
32875;BME280;40468;42.128;24.750;2023-08-01T01:35:46;99091.94;;;24.89;50.89
32875;BME280;40468;42.128;24.750;2023-08-01T01:37:19;99084.75;;;24.89;50.99
32875;BME280;40468;42.128;24.750;2023-08-01T01:38:50;99090.28;;;24.88;51.17
32875;BME280;40468;42.128;24.750;2023-08-01T01:40:21;99095.41;;;24.89;51.16
32875;BME280;40468;42.128;24.750;2023-08-01T01:41:53;99088.25;;;24.90;50.94
32875;BME280;40468;42.128;24.750;2023-08-01T01:43:24;99082.91;;;24.90;51.42
32875;BME280;40468;42.128;24.750;2023-08-01T01:44:56;99083.94;;;24.89;50.95
32875;BME280;40468;42.128;24.750;2023-08-01T01:46:26;99090.91;;;24.90;51.10
32875;BME280;40468;42.128;24.750;2023-08-01T01:47:58;99082.91;;;24.90;51.12
32875;BME280;40468;42.128;24.750;2023-08-01T01:49:29;99084.59;;;24.91;51.30
32875;BME280;40468;42.128;24.750;2023-08-01T01:51:01;99086.59;;;24.89;51.15
32875;BME280;40468;42.128;24.750;2023-08-01T01:52:33;99087.44;;;24.89;51.29
32875;BME280;40468;42.128;24.750;2023-08-01T01:54:05;99078.16;;;24.85;51.64
32875;BME280;40468;42.128;24.750;2023-08-01T01:55:36;99085.13;;;24.86;51.18
32875;BME280;40468;42.128;24.750;2023-08-01T01:57:07;99086.97;;;24.86;51.58
32875;BME280;40468;42.128;24.750;2023-08-01T01:58:38;99089.63;;;24.86;51.46
32875;BME280;40468;42.128;24.750;2023-08-01T02:00:12;99089.63;;;24.86;51.80
32875;BME280;40468;42.128;24.750;2023-08-01T02:01:42;99090.81;;;24.83;51.48
32875;BME280;40468;42.128;24.750;2023-08-01T02:03:14;99091.81;;;24.82;51.68
32875;BME280;40468;42.128;24.750;2023-08-01T02:04:47;99089.97;;;24.83;51.49
32875;BME280;40468;42.128;24.750;2023-08-01T02:06:18;99093.47;;;24.83;51.60
32875;BME280;40468;42.128;24.750;2023-08-01T02:07:51;99098.63;;;24.85;51.58
32875;BME280;40468;42.128;24.750;2023-08-01T02:09:24;99098.13;;;24.81;51.88
32875;BME280;40468;42.128;24.750;2023-08-01T02:10:55;99093.00;;;24.80;51.75
32875;BME280;40468;42.128;24.750;2023-08-01T02:12:28;99088.84;;;24.77;52.04
32875;BME280;40468;42.128;24.750;2023-08-01T02:14:01;99099.03;;;24.73;52.11
32875;BME280;40468;42.128;24.750;2023-08-01T02:15:33;99095.72;;;24.71;51.76
32875;BME280;40468;42.128;24.750;2023-08-01T02:17:05;99100.38;;;24.69;51.54
32875;BME280;40468;42.128;24.750;2023-08-01T02:18:37;99096.59;;;24.64;52.11
32875;BME280;40468;42.128;24.750;2023-08-01T02:20:08;99105.44;;;24.64;51.54
32875;BME280;40468;42.128;24.750;2023-08-01T02:21:40;99106.78;;;24.60;51.70
32875;BME280;40468;42.128;24.750;2023-08-01T02:23:13;99102.47;;;24.59;51.29
32875;BME280;40468;42.128;24.750;2023-08-01T02:24:44;99106.13;;;24.58;51.66
32875;BME280;40468;42.128;24.750;2023-08-01T02:26:16;99102.00;;;24.56;51.64
32875;BME280;40468;42.128;24.750;2023-08-01T02:27:46;99106.50;;;24.55;51.53
32875;BME280;40468;42.128;24.750;2023-08-01T02:29:18;99106.66;;;24.54;51.11
32875;BME280;40468;42.128;24.750;2023-08-01T02:30:49;99109.31;;;24.54;51.14
32875;BME280;40468;42.128;24.750;2023-08-01T02:32:21;99108.50;;;24.53;51.03
32875;BME280;40468;42.128;24.750;2023-08-01T02:33:52;99108.84;;;24.50;51.32
32875;BME280;40468;42.128;24.750;2023-08-01T02:35:24;99106.34;;;24.48;50.99
32875;BME280;40468;42.128;24.750;2023-08-01T02:36:54;99101.84;;;24.49;50.78
32875;BME280;40468;42.128;24.750;2023-08-01T02:38:28;99117.81;;;24.49;51.02
32875;BME280;40468;42.128;24.750;2023-08-01T02:39:58;99106.34;;;24.48;51.10
32875;BME280;40468;42.128;24.750;2023-08-01T02:41:30;99103.69;;;24.48;50.73
32875;BME280;40468;42.128;24.750;2023-08-01T02:43:01;99111.19;;;24.45;50.68
32875;BME280;40468;42.128;24.750;2023-08-01T02:44:33;99117.84;;;24.41;51.26
32875;BME280;40468;42.128;24.750;2023-08-01T02:46:05;99112.22;;;24.36;51.34
32875;BME280;40468;42.128;24.750;2023-08-01T02:47:36;99111.06;;;24.30;51.48
32875;BME280;40468;42.128;24.750;2023-08-01T02:49:07;99110.59;;;24.26;51.31
32875;BME280;40468;42.128;24.750;2023-08-01T02:50:38;99114.78;;;24.21;51.36
32875;BME280;40468;42.128;24.750;2023-08-01T02:52:10;99114.31;;;24.17;51.44
32875;BME280;40468;42.128;24.750;2023-08-01T02:53:42;99115.47;;;24.15;51.62
32875;BME280;40468;42.128;24.750;2023-08-01T02:55:15;99117.66;;;24.11;52.03
32875;BME280;40468;42.128;24.750;2023-08-01T02:56:46;99123.97;;;24.10;51.75
32875;BME280;40468;42.128;24.750;2023-08-01T02:58:17;99128.13;;;24.13;51.77
32875;BME280;40468;42.128;24.750;2023-08-01T02:59:49;99124.28;;;24.15;52.17
32875;BME280;40468;42.128;24.750;2023-08-01T03:01:20;99127.78;;;24.16;52.01
32875;BME280;40468;42.128;24.750;2023-08-01T03:02:52;99127.63;;;24.17;52.14
32875;BME280;40468;42.128;24.750;2023-08-01T03:04:22;99124.94;;;24.17;51.82
32875;BME280;40468;42.128;24.750;2023-08-01T03:05:54;99136.91;;;24.21;52.32
32875;BME280;40468;42.128;24.750;2023-08-01T03:07:25;99135.25;;;24.20;51.94
32875;BME280;40468;42.128;24.750;2023-08-01T03:08:58;99138.72;;;24.21;51.96
32875;BME280;40468;42.128;24.750;2023-08-01T03:10:29;99134.41;;;24.20;51.76
32875;BME280;40468;42.128;24.750;2023-08-01T03:12:01;99142.56;;;24.18;52.27
32875;BME280;40468;42.128;24.750;2023-08-01T03:13:32;99136.56;;;24.16;51.78
32875;BME280;40468;42.128;24.750;2023-08-01T03:15:05;99146.22;;;24.17;51.75
32875;BME280;40468;42.128;24.750;2023-08-01T03:16:36;99143.38;;;24.19;51.76
32875;BME280;40468;42.128;24.750;2023-08-01T03:18:08;99144.22;;;24.19;51.76
32875;BME280;40468;42.128;24.750;2023-08-01T03:19:38;99147.53;;;24.21;52.25
32875;BME280;40468;42.128;24.750;2023-08-01T03:21:10;99153.88;;;24.20;52.33
32875;BME280;40468;42.128;24.750;2023-08-01T03:22:41;99147.88;;;24.18;52.31
32875;BME280;40468;42.128;24.750;2023-08-01T03:24:14;99149.88;;;24.16;51.97
32875;BME280;40468;42.128;24.750;2023-08-01T03:25:45;99150.22;;;24.13;52.03
32875;BME280;40468;42.128;24.750;2023-08-01T03:27:17;99158.03;;;24.15;52.06
32875;BME280;40468;42.128;24.750;2023-08-01T03:28:48;99151.06;;;24.14;51.85
32875;BME280;40468;42.128;24.750;2023-08-01T03:30:20;99150.22;;;24.13;52.23
32875;BME280;40468;42.128;24.750;2023-08-01T03:31:51;99153.06;;;24.12;51.86
32875;BME280;40468;42.128;24.750;2023-08-01T03:33:23;99150.22;;;24.13;51.91
32875;BME280;40468;42.128;24.750;2023-08-01T03:34:53;99151.72;;;24.16;52.10
32875;BME280;40468;42.128;24.750;2023-08-01T03:36:25;99158.72;;;24.17;52.21
32875;BME280;40468;42.128;24.750;2023-08-01T03:37:57;99155.19;;;24.16;52.32
32875;BME280;40468;42.128;24.750;2023-08-01T03:39:29;99153.75;;;24.14;52.17
32875;BME280;40468;42.128;24.750;2023-08-01T03:41:01;99163.22;;;24.08;52.61
32875;BME280;40468;42.128;24.750;2023-08-01T03:42:34;99161.91;;;24.04;52.27
32875;BME280;40468;42.128;24.750;2023-08-01T03:44:06;99164.75;;;24.02;52.41
32875;BME280;40468;42.128;24.750;2023-08-01T03:45:37;99159.25;;;23.96;52.82
32875;BME280;40468;42.128;24.750;2023-08-01T03:47:08;99167.56;;;23.93;52.93
32875;BME280;40468;42.128;24.750;2023-08-01T03:48:40;99163.25;;;23.92;52.79
32875;BME280;40468;42.128;24.750;2023-08-01T03:50:11;99156.78;;;23.94;53.01
32875;BME280;40468;42.128;24.750;2023-08-01T03:51:44;99155.94;;;23.94;52.92
32875;BME280;40468;42.128;24.750;2023-08-01T03:53:15;99159.59;;;23.93;53.00
32875;BME280;40468;42.128;24.750;2023-08-01T03:54:48;99167.22;;;23.96;52.79
32875;BME280;40468;42.128;24.750;2023-08-01T03:56:19;99162.91;;;23.95;53.02
32875;BME280;40468;42.128;24.750;2023-08-01T03:57:50;99162.91;;;23.95;52.64
32875;BME280;40468;42.128;24.750;2023-08-01T03:59:22;99167.22;;;23.96;52.82
32875;BME280;40468;42.128;24.750;2023-08-01T04:00:54;99164.56;;;23.96;53.20
32875;BME280;40468;42.128;24.750;2023-08-01T04:02:25;99161.59;;;23.99;53.13
32875;BME280;40468;42.128;24.750;2023-08-01T04:03:56;99164.25;;;23.99;52.80
32875;BME280;40468;42.128;24.750;2023-08-01T04:05:27;99161.91;;;23.96;53.02
32875;BME280;40468;42.128;24.750;2023-08-01T04:06:59;99165.44;;;23.96;52.68
32875;BME280;40468;42.128;24.750;2023-08-01T04:08:31;99169.25;;;23.94;53.25
32875;BME280;40468;42.128;24.750;2023-08-01T04:10:04;99165.78;;;23.93;52.65
32875;BME280;40468;42.128;24.750;2023-08-01T04:11:36;99168.59;;;23.92;52.79
32875;BME280;40468;42.128;24.750;2023-08-01T04:13:07;99157.94;;;23.92;52.92
32875;BME280;40468;42.128;24.750;2023-08-01T04:14:39;99163.25;;;23.92;53.09
32875;BME280;40468;42.128;24.750;2023-08-01T04:16:10;99157.94;;;23.92;53.27
32875;BME280;40468;42.128;24.750;2023-08-01T04:17:42;99164.09;;;23.92;52.68
32875;BME280;40468;42.128;24.750;2023-08-01T04:19:13;99157.94;;;23.92;52.64
32875;BME280;40468;42.128;24.750;2023-08-01T04:20:45;99162.25;;;23.93;53.10
32875;BME280;40468;42.128;24.750;2023-08-01T04:22:16;99161.13;;;23.87;52.88
32875;BME280;40468;42.128;24.750;2023-08-01T04:23:48;99167.44;;;23.86;53.09
32875;BME280;40468;42.128;24.750;2023-08-01T04:25:20;99160.47;;;23.85;52.64
32875;BME280;40468;42.128;24.750;2023-08-01T04:26:54;99154.47;;;23.83;52.53
32875;BME280;40468;42.128;24.750;2023-08-01T04:28:25;99152.16;;;23.80;52.72
32875;BME280;40468;42.128;24.750;2023-08-01T04:29:57;99166.44;;;23.87;52.61
32875;BME280;40468;42.128;24.750;2023-08-01T04:31:28;99163.44;;;23.90;52.75
32875;BME280;40468;42.128;24.750;2023-08-01T04:32:59;99166.25;;;23.97;52.75
32875;BME280;40468;42.128;24.750;2023-08-01T04:34:30;99169.56;;;23.99;52.54
32875;BME280;40468;42.128;24.750;2023-08-01T04:36:02;99171.72;;;24.03;52.66
32875;BME280;40468;42.128;24.750;2023-08-01T04:37:35;99179.19;;;24.08;52.90
32875;BME280;40468;42.128;24.750;2023-08-01T04:39:05;99177.00;;;24.12;53.04
32875;BME280;40468;42.128;24.750;2023-08-01T04:40:39;99182.66;;;24.17;52.61
32875;BME280;40468;42.128;24.750;2023-08-01T04:42:09;99181.28;;;24.21;53.00
32875;BME280;40468;42.128;24.750;2023-08-01T04:43:41;99175.47;;;24.25;52.61
32875;BME280;40468;42.128;24.750;2023-08-01T04:45:12;99176.78;;;24.29;52.48
32875;BME280;40468;42.128;24.750;2023-08-01T04:46:44;99176.09;;;24.36;52.29
32875;BME280;40468;42.128;24.750;2023-08-01T04:48:18;99178.03;;;24.42;52.28
32875;BME280;40468;42.128;24.750;2023-08-01T04:49:53;99175.38;;;24.42;52.28
32875;BME280;40468;42.128;24.750;2023-08-01T04:51:24;99171.22;;;24.47;52.48
32875;BME280;40468;42.128;24.750;2023-08-01T04:52:56;99178.53;;;24.54;51.96
32875;BME280;40468;42.128;24.750;2023-08-01T04:54:26;99171.84;;;24.58;52.10
32875;BME280;40468;42.128;24.750;2023-08-01T04:55:59;99170.31;;;24.63;51.81
32875;BME280;40468;42.128;24.750;2023-08-01T04:57:30;99166.47;;;24.66;51.43
32875;BME280;40468;42.128;24.750;2023-08-01T04:59:05;99169.31;;;24.64;51.58
32875;BME280;40468;42.128;24.750;2023-08-01T05:00:37;99176.13;;;24.67;51.15
32875;BME280;40468;42.128;24.750;2023-08-01T05:02:09;99172.63;;;24.66;51.30
32875;BME280;40468;42.128;24.750;2023-08-01T05:03:40;99181.13;;;24.70;51.23
32875;BME280;40468;42.128;24.750;2023-08-01T05:05:12;99181.13;;;24.70;51.22
32875;BME280;40468;42.128;24.750;2023-08-01T05:06:43;99168.91;;;24.75;51.04
32875;BME280;40468;42.128;24.750;2023-08-01T05:08:15;99174.53;;;24.81;51.40
32875;BME280;40468;42.128;24.750;2023-08-01T05:09:46;99167.69;;;24.86;50.83
32875;BME280;40468;42.128;24.750;2023-08-01T05:11:20;99171.63;;;24.90;51.12
32875;BME280;40468;42.128;24.750;2023-08-01T05:12:52;99176.81;;;24.92;51.20
32875;BME280;40468;42.128;24.750;2023-08-01T05:14:23;99175.78;;;24.93;50.68
32875;BME280;40468;42.128;24.750;2023-08-01T05:15:55;99179.47;;;24.92;51.15
32875;BME280;40468;42.128;24.750;2023-08-01T05:17:29;99176.44;;;24.95;50.70
32875;BME280;40468;42.128;24.750;2023-08-01T05:19:01;99175.31;;;24.89;50.70
32875;BME280;40468;42.128;24.750;2023-08-01T05:20:32;99177.50;;;24.86;50.77
32875;BME280;40468;42.128;24.750;2023-08-01T05:22:05;99179.34;;;24.85;50.95
32875;BME280;40468;42.128;24.750;2023-08-01T05:23:36;99173.72;;;24.80;51.20
32875;BME280;40468;42.128;24.750;2023-08-01T05:25:08;99174.19;;;24.84;50.97
32875;BME280;40468;42.128;24.750;2023-08-01T05:26:42;99181.81;;;24.87;51.41
32875;BME280;40468;42.128;24.750;2023-08-01T05:28:13;99182.84;;;24.86;50.85
32875;BME280;40468;42.128;24.750;2023-08-01T05:29:45;99181.81;;;24.87;51.25
32875;BME280;40468;42.128;24.750;2023-08-01T05:31:16;99183.50;;;24.88;51.28
32875;BME280;40468;42.128;24.750;2023-08-01T05:32:48;99173.13;;;24.93;51.47
32875;BME280;40468;42.128;24.750;2023-08-01T05:34:19;99184.56;;;25.02;51.00
32875;BME280;40468;42.128;24.750;2023-08-01T05:35:51;99186.50;;;25.08;50.83
32875;BME280;40468;42.128;24.750;2023-08-01T05:37:21;99184.00;;;25.14;50.85
32875;BME280;40468;42.128;24.750;2023-08-01T05:38:57;99186.78;;;25.21;50.79
32875;BME280;40468;42.128;24.750;2023-08-01T05:40:29;99186.44;;;25.24;50.67
32875;BME280;40468;42.128;24.750;2023-08-01T05:42:08;99188.53;;;25.29;50.31
32875;BME280;40468;42.128;24.750;2023-08-01T05:43:40;99187.56;;;25.30;50.45
32875;BME280;40468;42.128;24.750;2023-08-01T05:45:12;99185.81;;;25.37;49.76
32875;BME280;40468;42.128;24.750;2023-08-01T05:46:43;99191.81;;;25.39;49.79
32875;BME280;40468;42.128;24.750;2023-08-01T05:48:15;99189.59;;;25.42;50.12
32875;BME280;40468;42.128;24.750;2023-08-01T05:49:47;99188.22;;;25.47;49.60
32875;BME280;40468;42.128;24.750;2023-08-01T05:51:18;99185.84;;;25.52;49.73
32875;BME280;40468;42.128;24.750;2023-08-01T05:52:50;99194.31;;;25.55;49.69
32875;BME280;40468;42.128;24.750;2023-08-01T05:54:22;99186.25;;;25.63;49.27
32875;BME280;40468;42.128;24.750;2023-08-01T05:55:54;99182.03;;;25.69;49.13
32875;BME280;40468;42.128;24.750;2023-08-01T05:57:26;99190.13;;;25.76;49.34
32875;BME280;40468;42.128;24.750;2023-08-01T05:58:59;99188.06;;;25.86;49.40
32875;BME280;40468;42.128;24.750;2023-08-01T06:00:29;99189.63;;;25.95;48.96
32875;BME280;40468;42.128;24.750;2023-08-01T06:02:02;99192.38;;;26.02;48.67
32875;BME280;40468;42.128;24.750;2023-08-01T06:03:33;99194.31;;;26.08;48.92
32875;BME280;40468;42.128;24.750;2023-08-01T06:05:06;99191.56;;;26.16;48.33
32875;BME280;40468;42.128;24.750;2023-08-01T06:06:52;99191.47;;;26.24;48.37
32875;BME280;40468;42.128;24.750;2023-08-01T06:08:52;99194.75;;;26.26;48.16
32875;BME280;40468;42.128;24.750;2023-08-01T06:10:34;99191.09;;;26.13;47.97
32875;BME280;40468;42.128;24.750;2023-08-01T06:12:06;99188.81;;;26.24;47.99
32875;BME280;40468;42.128;24.750;2023-08-01T06:21:25;99171.56;;;27.36;45.21
32875;BME280;40468;42.128;24.750;2023-08-01T06:28:34;99166.50;;;27.76;44.46
32875;BME280;40468;42.128;24.750;2023-08-01T06:30:19;99174.81;;;27.81;43.82
32875;BME280;40468;42.128;24.750;2023-08-01T06:31:51;99168.44;;;27.82;43.73
32875;BME280;40468;42.128;24.750;2023-08-01T06:33:23;99167.63;;;27.81;42.93
32875;BME280;40468;42.128;24.750;2023-08-01T06:34:55;99167.34;;;27.76;42.73
32875;BME280;40468;42.128;24.750;2023-08-01T06:36:28;99174.50;;;27.69;42.47
32875;BME280;40468;42.128;24.750;2023-08-01T06:38:00;99170.81;;;27.70;42.66
32875;BME280;40468;42.128;24.750;2023-08-01T06:39:32;99176.72;;;27.65;42.71
32875;BME280;40468;42.128;24.750;2023-08-01T06:41:45;99176.28;;;27.62;42.54
32875;BME280;40468;42.128;24.750;2023-08-01T06:43:53;99167.25;;;27.63;42.46
32875;BME280;40468;42.128;24.750;2023-08-01T06:45:25;99167.94;;;27.72;42.23
32875;BME280;40468;42.128;24.750;2023-08-01T07:05:51;99163.66;;;28.12;41.43
32875;BME280;40468;42.128;24.750;2023-08-01T07:07:44;99166.03;;;28.35;41.34
32875;BME280;40468;42.128;24.750;2023-08-01T07:09:16;99160.56;;;28.50;40.66
32875;BME280;40468;42.128;24.750;2023-08-01T07:10:47;99160.81;;;28.62;40.55
32875;BME280;40468;42.128;24.750;2023-08-01T07:12:19;99162.06;;;28.66;40.00
32875;BME280;40468;42.128;24.750;2023-08-01T07:13:50;99159.19;;;28.67;39.48
32875;BME280;40468;42.128;24.750;2023-08-01T07:15:22;99157.75;;;28.71;39.54
32875;BME280;40468;42.128;24.750;2023-08-01T07:16:53;99155.28;;;28.76;39.34
32875;BME280;40468;42.128;24.750;2023-08-01T07:18:26;99148.94;;;28.84;39.35
32875;BME280;40468;42.128;24.750;2023-08-01T07:20:29;99155.53;;;28.95;39.37
32875;BME280;40468;42.128;24.750;2023-08-01T07:22:38;99158.69;;;29.05;39.50
32875;BME280;40468;42.128;24.750;2023-08-01T07:32:13;99158.69;;;29.72;37.86
32875;BME280;40468;42.128;24.750;2023-08-01T07:34:14;99156.41;;;29.75;37.49
32875;BME280;40468;42.128;24.750;2023-08-01T07:36:48;99148.16;;;29.77;37.24
32875;BME280;40468;42.128;24.750;2023-08-01T07:38:52;99154.31;;;29.84;37.10
32875;BME280;40468;42.128;24.750;2023-08-01T07:43:39;99152.84;;;29.95;37.19
32875;BME280;40468;42.128;24.750;2023-08-01T07:46:04;99150.34;;;30.06;37.51
32875;BME280;40468;42.128;24.750;2023-08-01T07:47:54;99146.78;;;30.26;37.25
32875;BME280;40468;42.128;24.750;2023-08-01T07:54:07;99139.94;;;30.75;36.52
32875;BME280;40468;42.128;24.750;2023-08-01T07:55:42;99138.41;;;30.92;36.33
32875;BME280;40468;42.128;24.750;2023-08-01T07:57:13;99131.72;;;31.01;35.76
32875;BME280;40468;42.128;24.750;2023-08-01T07:58:46;99132.09;;;31.05;35.53
32875;BME280;40468;42.128;24.750;2023-08-01T08:00:17;99130.84;;;31.08;35.63
32875;BME280;40468;42.128;24.750;2023-08-01T08:01:49;99132.81;;;31.19;35.52
32875;BME280;40468;42.128;24.750;2023-08-01T08:03:20;99133.75;;;31.31;35.19
32875;BME280;40468;42.128;24.750;2023-08-01T08:04:53;99133.06;;;31.42;35.24
32875;BME280;40468;42.128;24.750;2023-08-01T08:06:24;99128.81;;;31.53;34.95
32875;BME280;40468;42.128;24.750;2023-08-01T08:07:57;99127.25;;;31.64;34.68
32875;BME280;40468;42.128;24.750;2023-08-01T08:09:28;99117.47;;;31.69;34.73
32875;BME280;40468;42.128;24.750;2023-08-01T08:11:01;99118.81;;;31.79;34.44
32875;BME280;40468;42.128;24.750;2023-08-01T08:12:32;99123.69;;;31.88;34.34
32875;BME280;40468;42.128;24.750;2023-08-01T08:14:04;99121.56;;;31.97;34.10
32875;BME280;40468;42.128;24.750;2023-08-01T08:15:38;99113.16;;;32.05;34.08
32875;BME280;40468;42.128;24.750;2023-08-01T08:17:10;99121.09;;;32.18;33.80
32875;BME280;40468;42.128;24.750;2023-08-01T08:18:41;99116.22;;;32.27;33.70
32875;BME280;40468;42.128;24.750;2023-08-01T08:20:13;99114.94;;;32.30;33.39
32875;BME280;40468;42.128;24.750;2023-08-01T08:21:44;99117.78;;;32.35;33.51
32875;BME280;40468;42.128;24.750;2023-08-01T08:23:18;99108.94;;;32.46;33.44
32875;BME280;40468;42.128;24.750;2023-08-01T08:24:50;99114.03;;;32.54;33.27
32875;BME280;40468;42.128;24.750;2023-08-01T08:26:21;99106.31;;;32.58;33.03
32875;BME280;40468;42.128;24.750;2023-08-01T08:27:54;99100.63;;;32.48;33.41
32875;BME280;40468;42.128;24.750;2023-08-01T08:29:25;99100.66;;;32.59;33.17
32875;BME280;40468;42.128;24.750;2023-08-01T08:44:16;99088.50;;;32.99;32.82
32875;BME280;40468;42.128;24.750;2023-08-01T09:11:11;99065.50;;;33.43;31.16
32875;BME280;40468;42.128;24.750;2023-08-01T09:12:44;99066.09;;;33.57;30.98
32875;BME280;40468;42.128;24.750;2023-08-01T09:14:15;99062.69;;;33.73;31.06
32875;BME280;40468;42.128;24.750;2023-08-01T09:15:47;99064.66;;;33.90;30.64
32875;BME280;40468;42.128;24.750;2023-08-01T09:17:20;99063.91;;;34.06;30.63
32875;BME280;40468;42.128;24.750;2023-08-01T09:18:52;99051.50;;;34.22;30.19
32875;BME280;40468;42.128;24.750;2023-08-01T09:20:24;99061.78;;;34.37;30.28
32875;BME280;40468;42.128;24.750;2023-08-01T09:21:55;99058.28;;;34.53;29.58
32875;BME280;40468;42.128;24.750;2023-08-01T09:23:33;99051.94;;;34.59;29.47
32875;BME280;40468;42.128;24.750;2023-08-01T09:27:01;99050.72;;;34.67;29.61
32875;BME280;40468;42.128;24.750;2023-08-01T09:28:23;99045.81;;;34.64;29.52
32875;BME280;40468;42.128;24.750;2023-08-01T09:30:29;99055.22;;;34.61;29.51
32875;BME280;40468;42.128;24.750;2023-08-01T09:32:35;99049.13;;;34.54;29.37
32875;BME280;40468;42.128;24.750;2023-08-01T09:34:20;99046.63;;;34.36;29.22
32875;BME280;40468;42.128;24.750;2023-08-01T09:37:00;99042.25;;;34.18;29.20
32875;BME280;40468;42.128;24.750;2023-08-01T09:38:57;99040.72;;;34.10;29.44